INFORMACIÓN METAR y TAF
METAR FOR EGLC
ADDS - METARS form results

(2116 UTC 02 June 2020)
Data provider http://aviationweather.gov/metar/data/
 
METAR text: EGLC 022050Z AUTO VRB02KT 9999 NCD 21/06 Q1014
Conditions at: EGLC (LONDON CITY AIRP, GB) observed 2050 UTC 02 June 2020
Temperature: 21.0°C (70°F)
Dewpoint: 6.0°C (43°F) [RH = 38%]
Pressure (altimeter): 29.94 inches Hg (1014.0 mb)
Winds: variable direction winds at 2 MPH (2 knots; 1.0 m/s)
Visibility: 6 or more miles (10+ km)
Ceiling: at least 12,000 feet AGL
Clouds: sky clear below 12,000 feet AGL
Weather: no significant weather observed at this time

METAR text: EGLC 022020Z AUTO 35004KT 310V030 9999 NCD 22/06 Q1014
Conditions at: EGLC (LONDON CITY AIRP, GB) observed 2020 UTC 02 June 2020
Temperature: 22.0°C (72°F)
Dewpoint: 6.0°C (43°F) [RH = 35%]
Pressure (altimeter): 29.94 inches Hg (1014.0 mb)
Winds: from the N (350 degrees) at 5 MPH (4 knots; 2.1 m/s)
Visibility: 6 or more miles (10+ km)
Ceiling: at least 12,000 feet AGL
Clouds: sky clear below 12,000 feet AGL
Weather: no significant weather observed at this time

Forecast for: EGLC (LONDON CITY AIRP, GB)
Text: TAF EGLC 021957Z 0221/0306 VRB04KT CAVOK
Forecast period: 2100 UTC 02 June 2020 to 0600 UTC 03 June 2020
Forecast type: FROM: standard forecast or significant change
Winds: variable direction winds at 5 MPH (4 knots; 2.1 m/s)
Visibility: 6 or more miles 10+ km)
Ceiling: unknown
Clouds: missing
Weather: NSW  (no significant weather)

MAPA DE AEROPUERTO

INFORMACIÓN DE PISTA
Pista 10 Longitud 4948 ft Ancho 98 ft
Elevación 16 ft Umbral desplazado 358 ft Rumbo de pista 93
Pista 28 Longitud 4948 ft Ancho 98 ft
Elevación 19 ft Umbral desplazado 211 ft Rumbo de pista 273

FRECUANCIAS DEL AEROPUERTO
Tipo APP Nombre APP Frecuencia 132.7 MHZ
Tipo ATIS Nombre ATIS Frecuencia 136.35 MHZ
Tipo GND Nombre GND Frecuencia 121.825 MHZ
Tipo TWR Nombre TWR Frecuencia 118.075 MHZ

RADIO AYUDAS DEL AEROPUERTO
Tipo NDB Nombre City Frecuencia 322 KHZ